Time;durP1;ratioP1;P1;durP2;ratioP2;P2;SDS_P1;SDS_P2;PMS_P1;PMS_P2;Temp;Humidity;BMP_temperature;BMP_pressure;BME280_temperature;BME280_humidity;BME280_pressure;Samples;Min_cycle;Max_cycle;Signal;HPM_P1;HPM_P2
2022/06/25 00:00:53;;;;;;;43.20;39.17;;;;;;;21.13;77.25;100500.00;5056784;28;20177;-68
2022/06/25 00:03:19;;;;;;;40.80;37.00;;;;;;;21.53;76.26;100501.13;5056394;28;20256;-69
2022/06/25 00:05:44;;;;;;;41.50;37.40;;;;;;;21.35;77.08;100496.50;5056543;28;20193;-68
2022/06/25 00:08:09;;;;;;;41.97;38.00;;;;;;;21.43;76.26;100499.72;5059134;28;20185;-70
2022/06/25 00:10:35;;;;;;;43.77;39.53;;;;;;;21.52;75.45;100502.00;5061357;28;20543;-69
2022/06/25 00:13:00;;;;;;;41.50;37.63;;;;;;;21.18;77.53;100505.13;5060599;28;20185;-70
2022/06/25 00:15:26;;;;;;;45.13;40.43;;;;;;;21.44;76.70;100509.41;5060326;28;20217;-69
2022/06/25 00:17:51;;;;;;;44.37;40.17;;;;;;;21.18;77.58;100518.38;5060734;28;20185;-69
2022/06/25 00:20:16;;;;;;;47.20;42.60;;;;;;;21.28;77.12;100518.91;5060955;28;20465;-70
2022/06/25 00:22:42;;;;;;;48.20;43.47;;;;;;;21.04;78.01;100532.19;5058950;28;20204;-69
2022/06/25 00:25:08;;;;;;;51.33;46.20;;;;;;;20.72;79.29;100536.00;5058480;28;20193;-68
2022/06/25 00:27:33;;;;;;;49.57;44.30;;;;;;;21.04;78.04;100537.47;5059731;28;20204;-69
2022/06/25 00:29:58;;;;;;;48.97;44.07;;;;;;;21.05;78.24;100547.13;5060506;28;20218;-70
2022/06/25 00:32:24;;;;;;;47.17;42.67;;;;;;;20.95;78.69;100543.13;5060247;28;20192;-69
2022/06/25 00:34:49;;;;;;;49.03;43.23;;;;;;;20.80;78.87;100552.47;5060042;28;20178;-70
2022/06/25 00:37:15;;;;;;;49.80;44.67;;;;;;;20.92;78.41;100553.81;5060536;28;20181;-70
2022/06/25 00:39:43;;;;;;;47.40;42.90;;;;;;;21.02;78.48;100555.22;5060709;28;20198;-70
2022/06/25 00:42:10;;;;;;;45.40;41.00;;;;;;;20.90;78.17;100553.84;5060162;28;20435;-69
2022/06/25 00:44:36;;;;;;;48.60;43.60;;;;;;;20.79;78.83;100556.03;5059767;28;20833;-67
2022/06/25 00:47:02;;;;;;;47.53;42.63;;;;;;;21.01;78.63;100558.78;5060735;28;20432;-69
2022/06/25 00:49:28;;;;;;;49.10;44.27;;;;;;;20.83;78.53;100562.97;5059778;28;20432;-67
2022/06/25 00:51:54;;;;;;;46.70;42.20;;;;;;;21.34;77.02;100564.59;5060368;28;20594;-69
2022/06/25 00:54:20;;;;;;;49.00;43.93;;;;;;;21.85;75.22;100561.78;5059964;28;20174;-69
2022/06/25 00:56:51;;;;;;;48.40;43.70;;;;;;;21.53;75.76;100567.44;5060055;28;20501;-69
2022/06/25 00:59:20;;;;;;;46.93;42.33;;;;;;;21.17;77.18;100570.53;5060143;28;20579;-69
2022/06/25 01:01:45;;;;;;;45.43;41.17;;;;;;;21.20;77.75;100578.38;5059726;28;20486;-69
2022/06/25 01:04:10;;;;;;;46.00;41.53;;;;;;;21.66;75.77;100570.50;5059606;28;20892;-69
2022/06/25 01:06:36;;;;;;;48.43;43.63;;;;;;;21.59;75.99;100579.59;5060034;28;20231;-70
2022/06/25 01:09:01;;;;;;;47.17;42.27;;;;;;;21.18;77.15;100582.88;5057854;28;20184;-70
2022/06/25 01:11:26;;;;;;;49.47;44.47;;;;;;;20.97;78.03;100589.84;5056387;28;20273;-70
2022/06/25 01:13:52;;;;;;;46.87;42.27;;;;;;;21.56;76.77;100581.53;5059744;28;20205;-71
2022/06/25 01:16:21;;;;;;;50.27;45.27;;;;;;;21.39;77.15;100588.28;5059697;28;20229;-71
2022/06/25 01:18:47;;;;;;;50.63;45.53;;;;;;;21.43;76.64;100591.69;5058957;28;20177;-72
2022/06/25 01:21:13;;;;;;;49.10;44.20;;;;;;;21.55;76.55;100593.06;5059323;28;20485;-72
2022/06/25 01:23:38;;;;;;;51.30;46.20;;;;;;;21.17;78.04;100605.00;5059175;28;20184;-70
2022/06/25 01:26:04;;;;;;;48.77;44.07;;;;;;;21.28;77.45;100609.03;5058451;28;20783;-70
2022/06/25 01:28:29;;;;;;;49.90;45.07;;;;;;;21.28;78.13;100611.69;5059696;28;20185;-71
2022/06/25 01:30:54;;;;;;;47.00;42.43;;;;;;;21.18;78.50;100603.22;5060016;28;20550;-71
2022/06/25 01:33:20;;;;;;;49.57;44.17;;;;;;;21.15;77.79;100603.34;5059699;28;20189;-71
2022/06/25 01:35:45;;;;;;;42.37;38.20;;;;;;;21.51;76.75;100609.06;5059826;28;20538;-71
2022/06/25 01:38:10;;;;;;;50.87;45.87;;;;;;;21.14;77.45;100610.41;5059595;28;20493;-72
2022/06/25 01:40:36;;;;;;;51.77;46.67;;;;;;;20.92;78.82;100606.81;5058489;28;20201;-71
2022/06/25 01:43:01;;;;;;;56.23;50.60;;;;;;;21.09;77.55;100598.25;5059227;28;20181;-72
2022/06/25 01:45:37;;;;;;;51.13;45.83;;;;;;;21.01;78.03;100603.81;5058864;28;20182;-71
2022/06/25 01:48:05;;;;;;;52.10;46.80;;;;;;;20.92;77.47;100604.16;5057711;28;20184;-71
2022/06/25 01:50:31;;;;;;;48.67;43.57;;;;;;;20.87;78.30;100601.69;5058841;28;20432;-70
2022/06/25 01:52:57;;;;;;;52.13;47.03;;;;;;;20.90;78.08;100608.66;5058358;28;20481;-72
2022/06/25 01:55:22;;;;;;;51.33;46.33;;;;;;;20.94;77.51;100608.47;5059238;28;20821;-72
2022/06/25 01:57:48;;;;;;;53.43;48.27;;;;;;;20.96;77.16;100616.38;5059183;28;20412;-72
2022/06/25 02:00:19;;;;;;;55.37;49.70;;;;;;;20.62;77.69;100617.53;5059290;28;20213;-72
2022/06/25 02:02:45;;;;;;;52.90;47.63;;;;;;;20.76;78.02;100622.41;5059546;28;20431;-71
2022/06/25 02:05:12;;;;;;;45.20;39.57;;;;;;;20.70;78.03;100615.50;5058904;28;20534;-70
2022/06/25 02:07:38;;;;;;;43.43;39.23;;;;;;;20.88;77.94;100616.66;5059038;28;20169;-71
2022/06/25 02:10:03;;;;;;;52.77;47.50;;;;;;;20.76;77.40;100617.94;5059521;28;20408;-71
2022/06/25 02:12:29;;;;;;;49.90;44.90;;;;;;;20.82;77.01;100611.56;5058685;28;20220;-71
2022/06/25 02:14:54;;;;;;;54.90;49.33;;;;;;;20.89;77.13;100612.22;5058050;28;20236;-71
2022/06/25 02:17:20;;;;;;;52.83;47.50;;;;;;;20.74;77.82;100613.63;5059007;28;20223;-71
2022/06/25 02:19:46;;;;;;;47.60;42.90;;;;;;;20.71;77.51;100611.09;5059086;28;20206;-71
2022/06/25 02:22:14;;;;;;;54.23;49.00;;;;;;;20.65;77.98;100604.19;5059038;28;20528;-72
2022/06/25 02:24:43;;;;;;;48.47;43.63;;;;;;;20.65;77.93;100617.44;5058768;28;20433;-71
2022/06/25 02:27:08;;;;;;;52.13;47.17;;;;;;;20.64;77.91;100613.91;5058653;28;20416;-71
2022/06/25 02:29:34;;;;;;;49.53;44.53;;;;;;;20.77;77.02;100609.09;5058444;28;20814;-72
2022/06/25 02:31:59;;;;;;;48.73;43.80;;;;;;;20.53;78.18;100603.69;5059041;28;20170;-71
2022/06/25 02:34:25;;;;;;;48.90;44.10;;;;;;;20.70;77.85;100615.50;5058791;28;20204;-71
2022/06/25 02:36:50;;;;;;;48.57;43.67;;;;;;;20.75;77.33;100621.50;5058354;28;20185;-71
2022/06/25 02:39:17;;;;;;;53.00;47.63;;;;;;;20.62;77.41;100626.34;5058847;28;20548;-70
2022/06/25 02:41:42;;;;;;;55.63;49.97;;;;;;;20.46;77.58;100636.59;5057536;28;20771;-71
2022/06/25 02:44:08;;;;;;;52.57;47.27;;;;;;;20.29;78.92;100628.34;5058047;28;20418;-71
2022/06/25 02:46:33;;;;;;;54.40;48.70;;;;;;;20.35;79.03;100630.78;5058696;28;20177;-71
2022/06/25 02:48:59;;;;;;;53.57;47.57;;;;;;;20.60;77.71;100638.75;5057505;28;20248;-71
2022/06/25 02:51:24;;;;;;;53.17;47.87;;;;;;;20.65;77.53;100639.47;5058372;28;20208;-70
2022/06/25 02:53:49;;;;;;;55.00;49.37;;;;;;;20.56;78.06;100642.44;5058245;28;20174;-71
2022/06/25 02:59:02;;;;;;;51.97;46.70;;;;;;;20.60;77.65;100646.72;5058431;28;20478;-70
2022/06/25 03:01:28;;;;;;;55.73;49.80;;;;;;;20.53;77.34;100643.41;5058538;28;20415;-71
2022/06/25 03:03:54;;;;;;;54.77;49.07;;;;;;;20.52;77.10;100644.31;5058210;28;20512;-71
2022/06/25 03:06:20;;;;;;;54.37;48.87;;;;;;;20.41;78.13;100651.75;5057746;28;20562;-71
2022/06/25 03:08:46;;;;;;;49.70;44.70;;;;;;;20.44;77.21;100648.16;5058121;28;20458;-70
2022/06/25 03:11:12;;;;;;;47.37;42.67;;;;;;;20.52;77.09;100641.66;5057943;28;20182;-71
2022/06/25 03:13:38;;;;;;;49.30;44.17;;;;;;;20.08;78.40;100648.41;5058708;28;20494;-70
2022/06/25 03:16:04;;;;;;;45.00;40.50;;;;;;;20.59;77.17;100641.47;5064142;28;20503;-71
2022/06/25 03:18:30;;;;;;;47.93;43.50;;;;;;;20.38;76.89;100643.91;5060730;28;20177;-72
2022/06/25 03:20:55;;;;;;;42.80;38.80;;;;;;;20.63;76.72;100656.34;5058528;28;20469;-71
2022/06/25 03:23:20;;;;;;;42.93;38.63;;;;;;;20.66;76.41;100643.88;5057776;28;20188;-71
2022/06/25 03:25:46;;;;;;;42.73;38.53;;;;;;;20.46;76.79;100643.69;5057845;28;20177;-71
2022/06/25 03:28:12;;;;;;;41.43;37.30;;;;;;;20.71;76.44;100643.72;5058731;28;20181;-72
2022/06/25 03:30:37;;;;;;;42.97;38.97;;;;;;;20.35;76.40;100649.31;5057962;28;20554;-72
2022/06/25 03:33:03;;;;;;;37.53;33.90;;;;;;;20.49;76.99;100644.41;5057706;28;20169;-71
2022/06/25 03:35:29;;;;;;;36.87;33.50;;;;;;;20.42;77.13;100656.13;5057830;28;20284;-72
2022/06/25 03:37:55;;;;;;;36.33;32.80;;;;;;;20.66;76.06;100648.28;5056891;28;20287;-71
2022/06/25 03:40:20;;;;;;;39.43;35.43;;;;;;;20.06;77.06;100645.81;5057729;28;20876;-71
2022/06/25 03:42:46;;;;;;;35.53;32.20;;;;;;;20.76;75.62;100643.59;5058219;28;20273;-71
2022/06/25 03:45:11;;;;;;;35.60;32.40;;;;;;;21.17;73.67;100641.25;5057691;28;20288;-72
2022/06/25 03:47:37;;;;;;;30.40;27.70;;;;;;;21.34;73.14;100638.00;5057801;28;20264;-72
2022/06/25 03:50:02;;;;;;;36.67;32.80;;;;;;;21.10;72.81;100643.25;5058378;28;20170;-71
2022/06/25 03:52:28;;;;;;;31.80;29.00;;;;;;;21.27;72.50;100639.13;5057763;28;20438;-71
2022/06/25 03:54:53;;;;;;;33.10;30.00;;;;;;;21.58;72.37;100640.66;5057419;28;20205;-71
2022/06/25 03:57:19;;;;;;;29.73;27.03;;;;;;;21.65;71.41;100639.50;5057488;28;20533;-71
2022/06/25 03:59:44;;;;;;;31.43;28.57;;;;;;;21.87;70.50;100639.56;5057956;28;20209;-72
2022/06/25 04:02:10;;;;;;;31.80;28.90;;;;;;;21.84;70.73;100631.72;5058081;28;20552;-71
2022/06/25 04:04:35;;;;;;;32.27;29.20;;;;;;;21.53;71.48;100638.19;5057624;28;20178;-70
2022/06/25 04:07:00;;;;;;;32.73;29.80;;;;;;;21.59;71.14;100647.72;5057942;28;20504;-71
2022/06/25 04:09:26;;;;;;;34.77;31.57;;;;;;;21.93;70.36;100643.75;5057660;28;20185;-72
2022/06/25 04:11:51;;;;;;;31.43;28.53;;;;;;;21.97;69.60;100642.72;5058068;28;20184;-72
2022/06/25 04:14:17;;;;;;;29.90;27.07;;;;;;;21.98;69.42;100642.66;5039835;28;20458;-71
2022/06/25 04:16:42;;;;;;;27.93;25.13;;;;;;;21.80;69.62;100649.53;5058162;28;20272;-71
2022/06/25 04:19:07;;;;;;;29.60;26.90;;;;;;;22.53;68.15;100655.50;5061692;28;20496;-72
2022/06/25 04:21:33;;;;;;;26.53;24.20;;;;;;;22.45;67.37;100660.28;5061198;28;20173;-70
2022/06/25 04:23:58;;;;;;;23.50;21.40;;;;;;;22.78;67.19;100654.47;5060662;28;20173;-71
2022/06/25 04:26:24;;;;;;;25.13;22.97;;;;;;;22.53;66.72;100654.66;5061208;28;20558;-73
2022/06/25 04:29:04;;;;;;;27.47;25.07;;;;;;;22.70;67.15;100653.94;5061278;28;20223;-71
2022/06/25 04:31:34;;;;;;;24.50;22.30;;;;;;;23.04;65.34;100657.78;5060554;28;20177;-71
2022/06/25 04:33:59;;;;;;;24.63;22.33;;;;;;;24.14;62.15;100653.69;5060654;28;20420;-71
2022/06/25 04:36:25;;;;;;;23.20;21.20;;;;;;;24.41;61.01;100650.63;5060935;28;20467;-73
2022/06/25 04:38:51;;;;;;;24.20;22.17;;;;;;;23.31;63.13;100652.22;5061400;28;20178;-73
2022/06/25 04:41:17;;;;;;;21.03;19.23;;;;;;;23.09;64.30;100663.78;5060559;28;20547;-72
2022/06/25 04:43:42;;;;;;;20.83;19.03;;;;;;;23.72;62.43;100660.09;5060374;28;20180;-73
2022/06/25 04:46:08;;;;;;;22.23;20.30;;;;;;;23.70;62.45;100661.97;5060514;28;20182;-74
2022/06/25 04:48:33;;;;;;;26.10;23.87;;;;;;;23.59;62.70;100672.25;5060623;28;20177;-72
2022/06/25 04:50:58;;;;;;;25.10;23.03;;;;;;;23.77;62.24;100675.84;5060561;28;20181;-74
2022/06/25 04:53:24;;;;;;;22.60;20.80;;;;;;;24.12;60.74;100671.53;5060511;28;20208;-73
2022/06/25 04:55:49;;;;;;;21.90;19.80;;;;;;;24.01;60.92;100671.19;5060212;28;20276;-73
2022/06/25 04:58:15;;;;;;;23.23;21.37;;;;;;;24.23;60.33;100683.50;5060242;28;20189;-74
2022/06/25 05:00:40;;;;;;;19.57;17.90;;;;;;;24.76;58.85;100685.34;5060841;28;20220;-74
2022/06/25 05:03:07;;;;;;;19.50;17.90;;;;;;;24.76;57.86;100680.00;5060004;28;20196;-75
2022/06/25 05:05:32;;;;;;;20.73;19.03;;;;;;;23.91;60.40;100686.75;5060106;28;20211;-72
2022/06/25 05:07:57;;;;;;;20.33;18.60;;;;;;;23.48;61.89;100689.56;5060404;28;20887;-73
2022/06/25 05:10:23;;;;;;;19.30;17.77;;;;;;;24.12;60.35;100679.53;5060177;28;20555;-72
2022/06/25 05:15:33;;;;;;;20.23;18.53;;;;;;;23.36;61.71;100692.78;5060046;28;20228;-71
2022/06/25 05:17:59;;;;;;;19.63;17.90;;;;;;;23.45;62.33;100697.69;5060331;28;20435;-72
2022/06/25 05:20:24;;;;;;;19.83;18.17;;;;;;;23.16;63.29;100698.97;5060265;28;20455;-71
2022/06/25 05:22:49;;;;;;;20.30;18.37;;;;;;;23.21;63.20;100704.97;5059414;28;20177;-70
2022/06/25 05:25:15;;;;;;;18.30;16.70;;;;;;;23.47;62.43;100697.63;5059908;28;20174;-72
2022/06/25 05:27:40;;;;;;;17.90;16.27;;;;;;;24.50;59.39;100697.25;5060048;28;20162;-70
2022/06/25 05:30:07;;;;;;;16.93;15.63;;;;;;;25.01;57.80;100697.41;5058895;28;20170;-72
2022/06/25 05:32:33;;;;;;;16.67;15.33;;;;;;;25.39;56.17;100694.56;5059213;28;20192;-72
2022/06/25 05:34:58;;;;;;;15.87;14.57;;;;;;;26.14;53.61;100707.44;5060017;28;20450;-74
2022/06/25 05:37:24;;;;;;;15.53;14.13;;;;;;;26.59;52.39;100699.53;5059544;28;20547;-74
2022/06/25 05:39:50;;;;;;;14.77;13.57;;;;;;;26.85;51.15;100706.91;5058853;28;20583;-74
2022/06/25 05:42:15;;;;;;;13.90;12.80;;;;;;;27.16;50.67;100720.28;5059808;28;20416;-74
2022/06/25 05:44:41;;;;;;;12.30;11.40;;;;;;;27.68;48.91;100714.41;5058643;28;20490;-73
2022/06/25 05:47:06;;;;;;;12.80;11.90;;;;;;;28.12;48.13;100711.69;5059058;28;20173;-74
2022/06/25 05:49:32;;;;;;;12.80;11.90;;;;;;;28.28;47.76;100730.31;5059988;28;20166;-73
2022/06/25 05:51:57;;;;;;;12.37;11.37;;;;;;;28.68;46.79;100727.72;5058443;28;20542;-73
2022/06/25 05:54:22;;;;;;;12.50;11.43;;;;;;;29.26;45.70;100730.13;5059182;28;20181;-72
2022/06/25 05:56:48;;;;;;;13.00;12.03;;;;;;;29.07;45.71;100734.91;5059809;28;20173;-73
2022/06/25 05:59:13;;;;;;;12.50;11.60;;;;;;;29.68;44.36;100733.44;5059120;28;20225;-73
2022/06/25 06:01:39;;;;;;;12.10;11.20;;;;;;;29.89;43.60;100726.56;5058996;28;20185;-73
2022/06/25 06:04:05;;;;;;;12.60;11.70;;;;;;;30.43;42.27;100735.19;5058604;28;20622;-73
2022/06/25 06:06:30;;;;;;;12.03;11.10;;;;;;;30.91;41.56;100727.13;5058458;28;20180;-74
2022/06/25 06:08:56;;;;;;;10.80;10.00;;;;;;;30.24;43.08;100750.03;5058754;28;20205;-74
2022/06/25 06:11:21;;;;;;;12.07;10.83;;;;;;;30.93;42.04;100736.91;5059398;28;20253;-73
2022/06/25 06:13:47;;;;;;;11.33;10.53;;;;;;;30.51;42.34;100746.28;5058475;28;20184;-74
2022/06/25 06:16:12;;;;;;;11.73;10.83;;;;;;;29.29;45.03;100748.72;5058109;28;20287;-73
2022/06/25 06:18:38;;;;;;;10.93;10.17;;;;;;;28.74;46.61;100743.44;5058810;28;20208;-74
2022/06/25 06:21:03;;;;;;;11.27;10.47;;;;;;;28.70;46.64;100744.59;5058902;28;20194;-71
2022/06/25 06:23:28;;;;;;;12.17;11.27;;;;;;;27.70;49.26;100747.31;5053118;28;20181;-70
2022/06/25 06:25:54;;;;;;;12.30;11.40;;;;;;;28.56;47.27;100749.03;5057519;28;20590;-70
2022/06/25 06:28:19;;;;;;;12.37;11.57;;;;;;;29.25;46.48;100745.38;5048925;28;20184;-70
2022/06/25 06:30:46;;;;;;;13.07;11.90;;;;;;;29.44;45.43;100742.25;5057787;28;20174;-70
2022/06/25 06:33:12;;;;;;;11.70;10.80;;;;;;;29.98;44.33;100748.38;5058289;28;20174;-69
2022/06/25 06:35:37;;;;;;;11.30;10.50;;;;;;;30.73;42.56;100748.22;5059603;28;20473;-69
2022/06/25 06:38:03;;;;;;;10.70;9.90;;;;;;;30.89;42.48;100747.91;5057028;28;20280;-68
2022/06/25 06:40:28;;;;;;;10.23;9.53;;;;;;;31.38;42.10;100753.22;5057939;28;20278;-70
2022/06/25 06:42:55;;;;;;;10.20;9.50;;;;;;;30.97;41.72;100757.22;5057750;28;20280;-70
2022/06/25 06:45:21;;;;;;;10.43;9.63;;;;;;;32.02;39.02;100749.09;5054605;28;21132;-70
2022/06/25 06:47:46;;;;;;;9.93;9.23;;;;;;;31.97;39.41;100754.00;5058202;28;20428;-71
2022/06/25 06:50:12;;;;;;;9.90;9.20;;;;;;;30.90;41.31;100757.72;5057725;28;20177;-70
2022/06/25 06:52:37;;;;;;;9.60;8.90;;;;;;;31.84;39.52;100760.38;5053238;28;20208;-71
2022/06/25 06:55:04;;;;;;;10.27;9.47;;;;;;;32.07;39.14;100755.81;5058345;28;20173;-70
2022/06/25 06:57:31;;;;;;;9.77;8.83;;;;;;;33.74;36.27;100757.19;5051730;28;20231;-70
2022/06/25 06:59:58;;;;;;;9.13;8.33;;;;;;;32.91;37.07;100767.91;5039550;28;20467;-71
2022/06/25 07:02:26;;;;;;;8.33;7.80;;;;;;;31.74;39.11;100770.16;5044317;28;20830;-71
2022/06/25 07:04:52;;;;;;;8.00;7.30;;;;;;;32.12;38.67;100770.75;5054671;28;20503;-72
2022/06/25 07:07:18;;;;;;;7.90;7.40;;;;;;;34.13;35.36;100772.75;5057904;28;20432;-72
2022/06/25 07:09:43;;;;;;;8.37;7.67;;;;;;;31.95;38.97;100772.13;5046629;28;20757;-70
2022/06/25 07:12:09;;;;;;;8.10;7.50;;;;;;;32.88;38.05;100774.41;5055357;28;20189;-72
2022/06/25 07:14:34;;;;;;;10.00;9.30;;;;;;;32.53;38.49;100777.31;5057379;28;20247;-72
2022/06/25 07:16:59;;;;;;;8.27;7.67;;;;;;;32.98;37.33;100770.94;5058427;28;20173;-71
2022/06/25 07:19:25;;;;;;;7.90;7.10;;;;;;;32.85;38.12;100771.09;5057611;28;20215;-70
2022/06/25 07:21:52;;;;;;;8.10;7.60;;;;;;;32.30;39.24;100777.41;5057261;28;20200;-72
2022/06/25 07:24:17;;;;;;;8.20;7.63;;;;;;;32.71;38.81;100769.59;5057461;28;20189;-71
2022/06/25 07:26:42;;;;;;;7.67;7.17;;;;;;;32.26;39.31;100775.94;5057745;28;20691;-71
2022/06/25 07:29:08;;;;;;;7.27;6.67;;;;;;;33.19;37.34;100769.09;5056980;28;20169;-72
2022/06/25 07:31:33;;;;;;;6.70;6.20;;;;;;;34.39;35.56;100759.56;5053164;28;20845;-69
2022/06/25 07:33:59;;;;;;;7.20;6.70;;;;;;;34.00;35.65;100770.25;5057052;28;20178;-69
2022/06/25 07:36:25;;;;;;;7.83;7.33;;;;;;;33.05;36.88;100777.53;5057546;28;20551;-72
2022/06/25 07:38:50;;;;;;;6.93;6.33;;;;;;;34.31;35.17;100775.66;5057430;28;20439;-70
2022/06/25 07:41:16;;;;;;;8.00;6.60;;;;;;;34.01;35.19;100780.94;5050725;28;20479;-72
2022/06/25 07:43:41;;;;;;;7.40;6.80;;;;;;;33.82;35.06;100781.72;5049964;28;20188;-72
2022/06/25 07:46:07;;;;;;;7.23;6.73;;;;;;;34.15;35.09;100785.09;5057396;28;20173;-72
2022/06/25 07:48:33;;;;;;;5.30;4.90;;;;;;;34.33;33.49;100774.53;5049862;28;20542;-72
2022/06/25 07:53:42;;;;;;;6.33;5.93;;;;;;;33.77;34.33;100783.94;5058920;28;20195;-72
2022/06/25 07:56:08;;;;;;;6.13;5.63;;;;;;;33.08;35.35;100794.34;5055593;28;20726;-70
2022/06/25 07:58:34;;;;;;;6.30;5.80;;;;;;;33.47;35.22;100790.22;5057494;28;20181;-70
2022/06/25 08:00:59;;;;;;;6.20;5.70;;;;;;;33.13;35.61;100795.78;5053173;28;20210;-71
2022/06/25 08:03:25;;;;;;;5.50;5.10;;;;;;;33.93;35.38;100788.88;5060837;28;20419;-73
2022/06/25 08:05:51;;;;;;;6.10;5.70;;;;;;;33.55;34.47;100791.22;5056229;28;20185;-72
2022/06/25 08:08:16;;;;;;;6.20;5.80;;;;;;;34.91;32.45;100787.28;5055318;28;20177;-72
2022/06/25 08:10:42;;;;;;;6.50;6.10;;;;;;;35.44;32.68;100795.06;5060759;28;20477;-73
2022/06/25 08:13:08;;;;;;;7.33;6.50;;;;;;;34.93;33.66;100789.00;5060010;28;20190;-72
2022/06/25 08:15:33;;;;;;;7.13;6.53;;;;;;;35.33;32.52;100791.53;5058823;28;20216;-72
2022/06/25 08:17:59;;;;;;;7.23;6.73;;;;;;;34.10;34.33;100800.03;5059552;28;20200;-72
2022/06/25 08:20:24;;;;;;;6.70;6.27;;;;;;;34.91;33.26;100794.53;5056899;28;20540;-73
2022/06/25 08:22:49;;;;;;;6.63;6.23;;;;;;;34.10;34.45;100800.91;5046511;28;20202;-72
2022/06/25 08:25:15;;;;;;;8.70;7.90;;;;;;;31.45;37.95;100810.19;5046929;28;20200;-72
2022/06/25 08:27:49;;;;;;;6.73;6.33;;;;;;;33.39;35.22;100797.09;5055242;28;20761;-72
2022/06/25 08:30:15;;;;;;;6.67;6.17;;;;;;;34.50;33.64;100797.31;5052788;28;20182;-71
2022/06/25 08:32:41;;;;;;;7.00;6.50;;;;;;;34.64;33.36;100797.91;5054827;28;20497;-72
2022/06/25 08:35:07;;;;;;;6.20;5.70;;;;;;;34.91;33.47;100795.41;5056850;28;20416;-73
2022/06/25 08:37:42;;;;;;;7.13;6.53;;;;;;;34.35;33.91;100790.63;5039367;28;20543;-73
2022/06/25 08:40:08;;;;;;;6.43;5.93;;;;;;;34.76;33.47;100799.47;5051726;28;20770;-71
2022/06/25 08:42:35;;;;;;;6.87;6.27;;;;;;;35.44;31.76;100801.34;5065998;28;20724;-73
2022/06/25 08:45:00;;;;;;;7.00;6.50;;;;;;;35.40;32.92;100805.38;5059346;28;20431;-72
2022/06/25 08:47:26;;;;;;;7.40;6.80;;;;;;;35.09;32.81;100797.38;5058485;28;20428;-73
2022/06/25 08:49:52;;;;;;;7.30;6.70;;;;;;;35.94;32.01;100797.50;5049943;28;20470;-72
2022/06/25 08:52:18;;;;;;;6.90;6.40;;;;;;;34.34;35.41;100806.00;5055798;28;20181;-72
2022/06/25 08:54:45;;;;;;;8.07;7.37;;;;;;;34.67;34.11;100797.66;5058265;28;20439;-72
2022/06/25 08:57:10;;;;;;;8.67;8.00;;;;;;;33.88;35.41;100802.81;5057880;28;20437;-72
2022/06/25 08:59:36;;;;;;;8.00;7.40;;;;;;;33.49;35.68;100802.59;5052134;28;20479;-75
2022/06/25 09:02:02;;;;;;;7.27;6.67;;;;;;;32.77;38.63;100806.84;5039802;28;20288;-75
2022/06/25 09:04:27;;;;;;;8.20;7.60;;;;;;;31.82;38.27;100810.00;5049778;28;20436;-76
2022/06/25 09:07:11;;;;;;;8.17;7.57;;;;;;;31.74;38.01;100810.59;5028921;28;20182;-76
2022/06/25 09:09:37;;;;;;;8.70;8.10;;;;;;;32.44;37.21;100805.94;5044803;28;20193;-74
2022/06/25 09:12:08;;;;;;;7.57;6.50;;;;;;;34.66;33.54;100801.34;5054771;28;20930;-77
2022/06/25 09:14:54;;;;;;;8.90;7.70;;;;;;;35.69;31.23;100793.56;5056211;28;20428;-70
2022/06/25 09:17:19;;;;;;;7.73;7.23;;;;;;;35.39;31.72;100787.38;5022437;28;20502;-73
2022/06/25 09:19:50;;;;;;;9.20;8.50;;;;;;;34.61;32.57;100790.06;5038998;28;20826;-72
2022/06/25 09:22:21;;;;;;;8.00;7.40;;;;;;;35.74;30.67;100791.28;5021413;28;20219;-73
2022/06/25 09:24:53;;;;;;;7.30;6.80;;;;;;;34.83;31.78;100787.13;5039930;28;20523;-75
2022/06/25 09:27:33;;;;;;;7.87;7.27;;;;;;;35.17;31.10;100786.69;5027145;28;20449;-74
2022/06/25 09:30:06;;;;;;;6.47;5.97;;;;;;;35.00;30.90;100792.81;5039007;28;20428;-74
2022/06/25 09:32:48;;;;;;;6.40;5.90;;;;;;;36.00;29.58;100785.19;5032215;28;20528;-74
2022/06/25 09:35:14;;;;;;;6.10;5.50;;;;;;;34.67;31.13;100790.38;5037639;28;20467;-75
2022/06/25 09:37:43;;;;;;;5.90;5.40;;;;;;;34.83;31.72;100786.25;5019725;28;20428;-73
2022/06/25 09:40:09;;;;;;;5.93;5.47;;;;;;;36.10;29.35;100780.53;5030083;28;20741;-74
2022/06/25 09:42:35;;;;;;;5.80;5.30;;;;;;;35.94;29.86;100778.50;5037005;28;20451;-74
2022/06/25 09:45:09;;;;;;;6.67;5.93;;;;;;;35.27;30.88;100789.38;5038366;28;20632;-74
2022/06/25 09:47:40;;;;;;;5.67;5.30;;;;;;;36.29;28.86;100795.03;5021324;28;20176;-75
2022/06/25 09:50:17;;;;;;;6.83;6.23;;;;;;;34.46;31.41;100787.78;5037900;28;20460;-73
2022/06/25 09:52:56;;;;;;;6.43;5.90;;;;;;;34.19;32.65;100793.81;5015649;28;20433;-74
2022/06/25 09:55:24;;;;;;;5.80;5.40;;;;;;;34.21;31.60;100791.84;5029412;28;20874;-74
2022/06/25 09:57:53;;;;;;;6.00;5.60;;;;;;;34.51;30.98;100790.91;5010262;28;20659;-75
2022/06/25 10:00:20;;;;;;;5.63;5.13;;;;;;;34.60;30.99;100796.47;5013296;28;20737;-75
2022/06/25 10:02:48;;;;;;;5.13;4.70;;;;;;;35.08;30.09;100784.84;5027504;28;20692;-74
2022/06/25 10:05:17;;;;;;;5.20;4.60;;;;;;;35.79;29.15;100796.25;5038137;28;20471;-74
2022/06/25 10:08:04;;;;;;;4.90;4.43;;;;;;;35.05;30.49;100796.81;5037956;28;20481;-75
2022/06/25 10:10:42;;;;;;;4.20;3.90;;;;;;;36.20;27.90;100794.94;5024985;28;20424;-75
2022/06/25 10:13:08;;;;;;;4.03;3.73;;;;;;;34.80;29.02;100789.22;5037016;28;20832;-75
2022/06/25 10:15:35;;;;;;;3.80;3.50;;;;;;;34.62;29.00;100789.09;5047604;28;20459;-74
2022/06/25 10:18:03;;;;;;;3.60;3.40;;;;;;;35.73;27.58;100789.56;5057613;28;20509;-74
2022/06/25 10:20:30;;;;;;;3.97;3.67;;;;;;;34.27;29.99;100795.84;5057580;28;20614;-73
2022/06/25 10:22:56;;;;;;;3.90;3.60;;;;;;;35.23;28.02;100786.06;5058782;28;20693;-74
2022/06/25 10:25:23;;;;;;;3.60;3.30;;;;;;;35.99;26.95;100783.47;5052316;28;20446;-71
2022/06/25 10:27:50;;;;;;;3.83;3.47;;;;;;;34.99;28.57;100782.97;5050285;28;20177;-75
2022/06/25 10:30:45;;;;;;;3.80;3.50;;;;;;;34.94;28.61;100783.44;5057493;28;20482;-74
2022/06/25 10:33:21;;;;;;;3.93;3.63;;;;;;;34.03;30.56;100786.22;5053428;28;20423;-73
2022/06/25 10:35:50;;;;;;;5.23;3.60;;;;;;;33.77;30.77;100783.09;5056979;28;20476;-74
2022/06/25 10:38:18;;;;;;;3.90;3.60;;;;;;;34.98;29.18;100787.56;5057538;28;20431;-72
2022/06/25 10:40:51;;;;;;;3.93;3.63;;;;;;;34.88;30.13;100779.44;5056400;28;20475;-71
2022/06/25 10:43:35;;;;;;;4.10;3.80;;;;;;;34.99;27.81;100782.97;5057213;28;20424;-74
2022/06/25 10:46:23;;;;;;;4.07;3.73;;;;;;;34.30;30.01;100787.44;5057266;28;20515;-74
2022/06/25 10:49:18;;;;;;;3.47;3.27;;;;;;;34.38;29.33;100785.78;5049488;28;20423;-73
2022/06/25 10:51:43;;;;;;;4.00;3.70;;;;;;;34.96;29.74;100781.41;5055210;28;20424;-73
2022/06/25 10:54:13;;;;;;;3.50;3.20;;;;;;;35.45;28.21;100783.22;5044544;28;20428;-74
2022/06/25 10:56:47;;;;;;;4.00;3.70;;;;;;;34.28;29.56;100789.44;5046464;28;20222;-74
2022/06/25 10:59:48;;;;;;;4.00;3.70;;;;;;;33.95;30.66;100772.50;5056835;28;20468;-74
2022/06/25 11:02:16;;;;;;;3.80;3.50;;;;;;;34.69;29.50;100780.22;5052477;28;20426;-74
2022/06/25 11:04:51;;;;;;;3.90;3.70;;;;;;;35.91;27.70;100781.50;5053779;28;20436;-73
2022/06/25 11:07:22;;;;;;;4.57;4.17;;;;;;;34.39;28.51;100789.34;5057673;28;20844;-73
2022/06/25 11:09:57;;;;;;;4.53;3.87;;;;;;;34.17;29.21;100788.53;5057446;28;20430;-74
2022/06/25 11:12:25;;;;;;;4.13;3.83;;;;;;;34.34;28.49;100791.59;5056409;28;20431;-71
2022/06/25 11:14:59;;;;;;;3.97;3.77;;;;;;;31.74;32.23;100791.72;5054331;28;20485;-73
2022/06/25 11:17:25;;;;;;;4.30;4.00;;;;;;;34.51;30.08;100782.78;5056994;28;20495;-72
2022/06/25 11:19:50;;;;;;;4.73;4.43;;;;;;;34.04;30.98;100783.34;5055713;28;20955;-75
2022/06/25 11:22:15;;;;;;;4.40;4.10;;;;;;;33.71;31.01;100790.75;5057466;28;20178;-74
2022/06/25 11:28:47;;;;;;;5.23;4.00;;;;;;;34.25;30.27;100785.16;5055191;28;20422;-74